Time;durP1;ratioP1;P1;durP2;ratioP2;P2;SDS_P1;SDS_P2;PMS_P1;PMS_P2;Temp;Humidity;BMP_temperature;BMP_pressure;BME280_temperature;BME280_humidity;BME280_pressure;Samples;Min_cycle;Max_cycle;Signal;HPM_P1;HPM_P2
2023/03/10 00:04:12;;;;;;;18.33;3.38;;;;;;;5.62;100.00;97806.91;10583872;28;20047;-74
2023/03/10 00:09:13;;;;;;;17.27;3.60;;;;;;;5.60;100.00;97792.28;10583228;28;20047;-73
2023/03/10 00:14:15;;;;;;;14.75;2.53;;;;;;;5.75;100.00;97797.56;10583466;28;20067;-72
2023/03/10 00:19:17;;;;;;;10.23;2.47;;;;;;;5.75;100.00;97783.72;10583126;28;20529;-72
2023/03/10 00:24:19;;;;;;;14.52;2.42;;;;;;;5.71;100.00;97772.59;10583518;28;20144;-72
2023/03/10 00:29:20;;;;;;;14.70;2.80;;;;;;;5.71;100.00;97782.16;10565284;28;20130;-73
2023/03/10 00:34:22;;;;;;;8.07;2.35;;;;;;;6.03;100.00;97770.22;10582832;28;20050;-73
2023/03/10 00:39:25;;;;;;;7.80;2.05;;;;;;;6.13;100.00;97768.84;10564686;28;20043;-73
2023/03/10 00:44:27;;;;;;;9.02;2.28;;;;;;;6.04;100.00;97759.69;10564438;28;20050;-73
2023/03/10 00:49:29;;;;;;;11.52;3.58;;;;;;;6.17;100.00;97740.84;10582760;28;20043;-73
2023/03/10 00:54:30;;;;;;;7.65;2.92;;;;;;;6.19;100.00;97729.38;10570719;28;20043;-72
2023/03/10 00:59:32;;;;;;;5.47;1.60;;;;;;;6.22;100.00;97726.63;10590484;28;20097;-73
2023/03/10 01:04:50;;;;;;;9.00;2.63;;;;;;;6.22;100.00;97717.97;10589546;28;20046;-72
2023/03/10 01:09:51;;;;;;;7.72;1.40;;;;;;;6.36;100.00;97707.66;10589749;28;20043;-73
2023/03/10 01:14:53;;;;;;;6.75;1.85;;;;;;;6.52;100.00;97694.66;10590356;28;20046;-73
2023/03/10 01:19:55;;;;;;;10.52;1.90;;;;;;;6.69;100.00;97699.00;10570529;28;20059;-71
2023/03/10 01:24:57;;;;;;;6.45;1.58;;;;;;;6.68;100.00;97679.00;10570447;28;20057;-72
2023/03/10 01:29:58;;;;;;;5.07;1.60;;;;;;;6.80;100.00;97670.53;10589505;28;20047;-73
2023/03/10 01:35:00;;;;;;;10.30;2.13;;;;;;;6.96;100.00;97652.25;10588305;28;20040;-73
2023/03/10 01:40:04;;;;;;;6.03;1.50;;;;;;;6.91;100.00;97644.69;10570295;28;20054;-74
2023/03/10 01:45:28;;;;;;;8.82;1.85;;;;;;;7.05;100.00;97634.31;10588793;28;20400;-72
2023/03/10 01:50:31;;;;;;;9.00;1.40;;;;;;;7.35;100.00;97628.28;10570701;28;20047;-72
2023/03/10 01:55:36;;;;;;;8.40;1.50;;;;;;;7.46;100.00;97609.38;10569624;28;20048;-73
2023/03/10 02:00:40;;;;;;;4.73;1.53;;;;;;;7.74;98.30;97608.59;10587909;28;20101;-73
2023/03/10 02:05:45;;;;;;;8.77;2.00;;;;;;;7.84;97.10;97609.75;10569733;28;20047;-72
2023/03/10 02:10:47;;;;;;;6.07;1.50;;;;;;;7.69;98.51;97605.41;10552745;28;20043;-73
2023/03/10 02:15:50;;;;;;;5.15;1.77;;;;;;;7.45;100.00;97599.84;10569425;28;20416;-73
2023/03/10 02:21:10;;;;;;;5.15;1.30;;;;;;;7.58;98.84;97583.34;10587767;28;20150;-72
2023/03/10 02:26:38;;;;;;;6.03;1.70;;;;;;;7.86;96.21;97579.09;10569405;28;20432;-71
2023/03/10 02:31:40;;;;;;;6.75;1.60;;;;;;;7.75;98.22;97573.69;10570080;28;20097;-72
2023/03/10 02:36:42;;;;;;;8.07;1.77;;;;;;;7.91;96.88;97565.75;10569806;28;20050;-72
2023/03/10 02:41:45;;;;;;;8.50;1.50;;;;;;;8.18;96.45;97560.59;10587106;28;20047;-72
2023/03/10 02:46:51;;;;;;;4.90;1.25;;;;;;;8.29;96.56;97561.63;10552354;28;20416;-72
2023/03/10 02:51:56;;;;;;;5.90;1.60;;;;;;;8.34;98.08;97561.34;10569357;28;20116;-72
2023/03/10 02:56:58;;;;;;;3.30;0.93;;;;;;;8.33;100.00;97551.81;10587106;28;20562;-72
2023/03/10 03:02:00;;;;;;;3.70;1.30;;;;;;;8.16;100.00;97534.53;10568066;28;20051;-72
2023/03/10 03:07:02;;;;;;;4.78;1.35;;;;;;;8.01;100.00;97527.63;10567559;28;20098;-72
2023/03/10 03:12:05;;;;;;;6.32;1.98;;;;;;;7.97;100.00;97513.91;10567344;28;20040;-71
2023/03/10 03:17:07;;;;;;;4.05;1.48;;;;;;;8.01;100.00;97499.72;10567028;28;20044;-72
2023/03/10 03:22:09;;;;;;;7.72;1.90;;;;;;;7.71;100.00;97493.72;10566756;28;20054;-70
2023/03/10 03:27:11;;;;;;;5.65;1.73;;;;;;;7.71;100.00;97496.34;10565718;28;20050;-70
2023/03/10 03:32:12;;;;;;;6.15;1.75;;;;;;;7.54;100.00;97490.34;10565893;28;20070;-70
2023/03/10 03:37:14;;;;;;;6.63;1.65;;;;;;;7.53;100.00;97483.44;10565964;28;20441;-70
2023/03/10 03:42:16;;;;;;;4.35;1.30;;;;;;;7.34;100.00;97461.94;10565654;28;20048;-70
2023/03/10 03:47:24;;;;;;;4.60;1.38;;;;;;;7.36;100.00;97459.25;10549947;28;20059;-70
2023/03/10 03:52:26;;;;;;;3.28;1.13;;;;;;;7.25;100.00;97457.28;10583295;28;20040;-69
2023/03/10 03:57:29;;;;;;;4.88;1.38;;;;;;;7.25;100.00;97457.28;10565573;28;20047;-70
2023/03/10 04:02:32;;;;;;;4.45;0.95;;;;;;;7.27;100.00;97444.97;10582822;28;20051;-70
2023/03/10 04:07:34;;;;;;;2.38;1.13;;;;;;;7.46;100.00;97436.84;10564049;28;20047;-70
2023/03/10 04:12:37;;;;;;;3.60;1.02;;;;;;;8.09;100.00;97420.72;10564444;28;20043;-71
2023/03/10 04:17:40;;;;;;;5.00;1.30;;;;;;;8.39;96.48;97420.56;10563916;28;20047;-70
2023/03/10 04:22:42;;;;;;;2.08;0.95;;;;;;;8.21;98.37;97416.50;10563807;28;20044;-70
2023/03/10 04:27:45;;;;;;;2.45;1.02;;;;;;;8.00;100.00;97411.69;10569699;28;20039;-70
2023/03/10 04:32:47;;;;;;;3.25;1.13;;;;;;;8.30;96.65;97394.97;10572092;28;20044;-70
2023/03/10 04:37:51;;;;;;;4.53;1.20;;;;;;;8.32;95.75;97390.47;10590090;28;20489;-70
2023/03/10 04:42:54;;;;;;;3.70;1.02;;;;;;;8.37;95.17;97390.19;10588326;28;20082;-70
2023/03/10 04:47:56;;;;;;;3.03;0.93;;;;;;;8.04;98.16;97394.84;10589766;28;20051;-70
2023/03/10 04:52:57;;;;;;;1.83;0.90;;;;;;;7.76;100.00;97392.31;10571168;28;20096;-70
2023/03/10 04:58:03;;;;;;;4.43;1.48;;;;;;;7.72;100.00;97403.88;10571441;28;20161;-69
2023/03/10 05:03:04;;;;;;;2.40;1.08;;;;;;;7.92;99.04;97392.16;10570406;28;20047;-70
2023/03/10 05:08:07;;;;;;;4.03;1.15;;;;;;;7.97;99.08;97382.25;10589799;28;20044;-69
2023/03/10 05:13:12;;;;;;;2.50;1.25;;;;;;;7.97;98.95;97392.72;10567186;28;20058;-70
2023/03/10 05:18:15;;;;;;;5.05;1.10;;;;;;;7.98;99.00;97383.94;10566602;28;20493;-70
2023/03/10 05:23:17;;;;;;;2.95;1.00;;;;;;;8.03;98.69;97379.25;10565983;28;20035;-70
2023/03/10 05:28:22;;;;;;;2.72;1.30;;;;;;;7.91;99.28;97372.19;10569018;28;20067;-70
2023/03/10 05:33:25;;;;;;;3.72;1.50;;;;;;;7.69;100.00;97370.91;10569639;28;20050;-70
2023/03/10 05:38:30;;;;;;;4.53;1.30;;;;;;;7.70;100.00;97379.59;10587140;28;20048;-70
2023/03/10 05:43:31;;;;;;;3.50;1.20;;;;;;;7.71;100.00;97379.53;10587966;28;20040;-70
2023/03/10 05:48:34;;;;;;;2.22;1.00;;;;;;;7.85;100.00;97362.97;10569134;28;20069;-70
2023/03/10 05:53:37;;;;;;;2.50;1.10;;;;;;;7.79;100.00;97361.59;10569062;28;20070;-70
2023/03/10 05:58:43;;;;;;;1.85;1.00;;;;;;;7.79;100.00;97373.78;10569119;28;20040;-70
2023/03/10 06:03:47;;;;;;;2.45;1.33;;;;;;;7.91;100.00;97359.94;10568175;28;20135;-70
2023/03/10 06:08:49;;;;;;;1.88;0.88;;;;;;;8.12;98.43;97367.38;10586455;28;20409;-70
2023/03/10 06:13:51;;;;;;;2.78;1.10;;;;;;;8.48;95.30;97362.38;10568403;28;20050;-70
2023/03/10 06:18:54;;;;;;;2.15;0.88;;;;;;;8.56;94.68;97370.56;10586992;28;20050;-70
2023/03/10 06:23:57;;;;;;;1.48;0.65;;;;;;;8.88;91.54;97362.34;10586143;28;20086;-69
2023/03/10 06:29:00;;;;;;;1.70;0.82;;;;;;;8.81;92.35;97374.19;10586823;28;20051;-70
2023/03/10 06:34:02;;;;;;;2.78;0.85;;;;;;;8.98;91.41;97363.41;10567785;28;20032;-70
2023/03/10 06:39:06;;;;;;;1.33;0.65;;;;;;;9.01;92.93;97360.56;10569179;28;20047;-70
2023/03/10 06:44:08;;;;;;;2.28;0.82;;;;;;;9.10;91.75;97359.94;10585694;28;20035;-70
2023/03/10 06:49:09;;;;;;;1.00;0.50;;;;;;;9.10;91.70;97359.94;10585743;28;20063;-71
2023/03/10 06:54:11;;;;;;;1.52;0.60;;;;;;;9.09;93.48;97365.31;10567211;28;20081;-72
2023/03/10 06:59:13;;;;;;;1.55;0.52;;;;;;;9.12;92.85;97372.97;10585295;28;20077;-69
2023/03/10 07:04:15;;;;;;;2.10;0.73;;;;;;;9.51;89.13;97373.75;10566826;28;20428;-70
2023/03/10 07:09:17;;;;;;;1.67;0.50;;;;;;;9.42;90.14;97370.00;10585929;28;20045;-70
2023/03/10 07:14:18;;;;;;;1.35;0.35;;;;;;;9.36;91.26;97373.03;10565918;28;20036;-70
2023/03/10 07:19:20;;;;;;;1.23;0.57;;;;;;;9.33;92.04;97370.63;10549251;28;20130;-70
2023/03/10 07:24:22;;;;;;;2.17;0.55;;;;;;;9.48;89.95;97369.59;10565266;28;20488;-70
2023/03/10 07:29:24;;;;;;;1.30;0.70;;;;;;;9.54;89.94;97374.38;10583884;28;20048;-70
2023/03/10 07:34:26;;;;;;;1.23;0.60;;;;;;;9.52;92.42;97373.66;10583473;28;20027;-70
2023/03/10 07:39:28;;;;;;;2.00;0.45;;;;;;;9.79;89.20;97370.06;10583559;28;20043;-71
2023/03/10 07:44:29;;;;;;;0.88;0.30;;;;;;;9.84;89.88;97374.00;10583012;28;20035;-71
2023/03/10 07:49:31;;;;;;;1.00;0.50;;;;;;;9.98;89.67;97366.94;10564913;28;20040;-71
2023/03/10 07:54:33;;;;;;;1.00;0.43;;;;;;;10.07;88.12;97366.28;10583022;28;20042;-71
2023/03/10 07:59:35;;;;;;;3.60;0.50;;;;;;;10.13;87.25;97362.34;10564446;28;20058;-71
2023/03/10 08:04:37;;;;;;;0.90;0.50;;;;;;;10.37;84.18;97368.50;10582822;28;20035;-71
2023/03/10 08:09:39;;;;;;;1.15;0.30;;;;;;;10.39;85.04;97374.47;10585015;28;20119;-71
2023/03/10 08:14:42;;;;;;;0.98;0.40;;;;;;;10.74;81.50;97382.34;10583610;28;20039;-70
2023/03/10 08:19:44;;;;;;;0.90;0.35;;;;;;;10.75;83.05;97384.03;10584654;28;20048;-70
2023/03/10 08:24:45;;;;;;;1.73;0.50;;;;;;;11.08;79.95;97391.19;10565427;28;20054;-70
2023/03/10 08:29:47;;;;;;;1.10;0.55;;;;;;;11.08;79.37;97385.91;10583641;28;20468;-70
2023/03/10 08:34:49;;;;;;;1.70;0.40;;;;;;;11.18;80.63;97388.69;10548201;28;20093;-71
2023/03/10 08:39:53;;;;;;;0.63;0.43;;;;;;;11.37;79.19;97386.31;10564032;28;20046;-71
2023/03/10 08:44:55;;;;;;;1.45;0.70;;;;;;;11.77;76.03;97383.19;10564001;28;20511;-70
2023/03/10 08:49:57;;;;;;;0.80;0.32;;;;;;;11.89;75.55;97380.59;10583247;28;20101;-70
2023/03/10 08:54:59;;;;;;;1.05;0.38;;;;;;;11.93;75.47;97382.88;10581616;28;20381;-70
2023/03/10 09:00:03;;;;;;;1.15;0.32;;;;;;;12.13;72.56;97378.66;10581412;28;20130;-70
2023/03/10 09:05:05;;;;;;;1.52;0.60;;;;;;;12.28;72.43;97387.94;10563414;28;20102;-69
2023/03/10 09:10:08;;;;;;;0.98;0.60;;;;;;;12.62;68.81;97383.41;10581561;28;20048;-70
2023/03/10 09:15:09;;;;;;;1.15;0.32;;;;;;;12.86;66.96;97380.53;10587735;28;20098;-71
2023/03/10 09:20:14;;;;;;;0.80;0.30;;;;;;;13.00;65.41;97381.16;10588951;28;20130;-70
2023/03/10 09:25:16;;;;;;;1.13;0.40;;;;;;;13.00;65.08;97384.66;10589022;28;20097;-71
2023/03/10 09:30:17;;;;;;;2.28;0.60;;;;;;;12.58;66.16;97399.59;10588437;28;20054;-71
2023/03/10 09:35:19;;;;;;;2.70;0.60;;;;;;;12.46;67.11;97393.50;10588424;28;20043;-71
2023/03/10 09:40:22;;;;;;;0.90;0.40;;;;;;;12.06;68.95;97394.09;10587933;28;20477;-71
2023/03/10 09:45:49;;;;;;;0.75;0.52;;;;;;;12.23;70.70;97403.28;10587905;28;20039;-72
2023/03/10 09:50:51;;;;;;;;;;;;;;;12.83;67.91;97393.13;10559808;28;20043;-72
2023/03/10 09:55:53;;;;;;;0.70;0.40;;;;;;;13.11;67.23;97387.22;10569749;28;20307;-72
2023/03/10 10:00:55;;;;;;;1.55;0.50;;;;;;;13.47;62.38;97377.19;10587359;28;20050;-71
2023/03/10 10:05:58;;;;;;;1.63;0.50;;;;;;;13.53;61.40;97376.66;10587261;28;20449;-71
2023/03/10 10:11:02;;;;;;;1.63;0.30;;;;;;;13.66;60.76;97372.97;10586858;28;20043;-72
2023/03/10 10:16:30;;;;;;;0.95;0.40;;;;;;;14.53;59.45;97379.31;10569183;28;20104;-71
2023/03/10 10:22:06;;;;;;;0.95;0.68;;;;;;;14.83;55.57;97377.47;10587041;28;20256;-71
2023/03/10 10:27:08;;;;;;;1.48;0.50;;;;;;;14.47;56.88;97381.63;10586477;28;20050;-72
2023/03/10 10:32:14;;;;;;;2.28;0.60;;;;;;;14.23;57.95;97388.13;10586697;28;20046;-71
2023/03/10 10:37:25;;;;;;;1.17;0.75;;;;;;;13.86;56.45;97399.31;10586268;28;20040;-72
2023/03/10 10:42:30;;;;;;;1.60;0.50;;;;;;;13.91;55.67;97400.72;10585468;28;20050;-73
2023/03/10 10:47:48;;;;;;;1.42;0.50;;;;;;;13.86;55.41;97403.75;10585888;28;20495;-73
2023/03/10 10:53:11;;;;;;;1.00;0.38;;;;;;;13.62;55.74;97389.03;10585097;28;20039;-71
2023/03/10 10:58:36;;;;;;;1.15;0.50;;;;;;;13.56;56.38;97400.16;10585319;28;20036;-72
2023/03/10 11:03:43;;;;;;;2.60;0.63;;;;;;;13.53;56.94;97396.94;10566395;28;20524;-71
2023/03/10 11:08:49;;;;;;;1.95;0.47;;;;;;;13.57;57.57;97388.63;10583913;28;20197;-71
2023/03/10 11:14:13;;;;;;;2.60;0.82;;;;;;;13.60;56.53;97395.44;10584497;28;20040;-72
2023/03/10 11:19:20;;;;;;;4.53;0.40;;;;;;;13.47;58.94;97403.56;10565719;28;20039;-72
2023/03/10 11:24:36;;;;;;;1.38;0.52;;;;;;;13.41;57.63;97393.53;10565858;28;20043;-72
2023/03/10 11:29:47;;;;;;;2.13;0.63;;;;;;;13.73;57.49;97380.22;10584225;28;20039;-72
2023/03/10 11:34:52;;;;;;;2.28;0.50;;;;;;;13.76;56.98;97373.81;10565021;28;20036;-71
2023/03/10 11:40:06;;;;;;;1.83;0.50;;;;;;;13.66;56.85;97362.41;10582933;28;20067;-71
2023/03/10 11:45:33;;;;;;;2.67;0.68;;;;;;;13.65;55.64;97350.16;10565684;28;20039;-72
2023/03/10 11:50:53;;;;;;;1.67;0.60;;;;;;;13.69;56.79;97349.78;10584373;28;20071;-72
2023/03/10 11:55:58;;;;;;;8.88;1.00;;;;;;;13.81;56.71;97339.94;10583269;28;20504;-71
2023/03/10 12:01:00;;;;;;;3.60;0.52;;;;;;;14.14;55.23;97342.22;10548803;28;20081;-73
2023/03/10 12:06:09;;;;;;;1.67;0.80;;;;;;;14.23;55.63;97339.75;10583963;28;20047;-70
2023/03/10 12:11:17;;;;;;;1.38;0.55;;;;;;;14.60;54.75;97340.75;10583453;28;20046;-72
2023/03/10 12:16:24;;;;;;;2.22;0.50;;;;;;;14.34;54.16;97324.63;10583352;28;20395;-71
2023/03/10 12:21:29;;;;;;;2.25;0.65;;;;;;;14.38;53.05;97322.50;10582269;28;20044;-72
2023/03/10 12:26:37;;;;;;;3.60;0.90;;;;;;;14.18;54.86;97319.03;10563819;28;20058;-73
2023/03/10 12:31:38;;;;;;;1.20;0.50;;;;;;;13.68;54.56;97305.88;10581977;28;20048;-71
2023/03/10 12:36:44;;;;;;;2.17;0.80;;;;;;;13.48;55.73;97310.25;10581864;28;20105;-71
2023/03/10 12:41:48;;;;;;;2.05;0.80;;;;;;;13.56;56.25;97301.66;10582269;28;20620;-71
2023/03/10 12:46:57;;;;;;;3.85;0.85;;;;;;;13.61;55.49;97299.44;10584672;28;20081;-71
2023/03/10 12:52:16;;;;;;;3.55;0.68;;;;;;;13.75;56.50;97295.59;10590925;28;20047;-71
2023/03/10 12:57:26;;;;;;;2.20;0.68;;;;;;;13.71;57.02;97300.31;10590210;28;20035;-71
2023/03/10 13:02:49;;;;;;;3.00;0.80;;;;;;;13.94;56.29;97290.34;10571361;28;20039;-72
2023/03/10 13:07:55;;;;;;;3.22;0.85;;;;;;;14.09;56.03;97281.06;10589840;28;20043;-71
2023/03/10 13:13:07;;;;;;;2.28;0.85;;;;;;;14.27;55.94;97272.44;10589780;28;20093;-71
2023/03/10 13:18:09;;;;;;;3.30;0.85;;;;;;;14.48;52.81;97262.59;10589176;28;20448;-71
2023/03/10 13:23:23;;;;;;;2.30;0.85;;;;;;;14.52;51.12;97257.84;10589685;28;20040;-71
2023/03/10 13:28:28;;;;;;;1.30;0.60;;;;;;;14.68;52.27;97252.00;10587828;28;20042;-71
2023/03/10 13:33:29;;;;;;;1.75;0.73;;;;;;;14.43;50.95;97246.28;10588564;28;20053;-72
2023/03/10 13:38:41;;;;;;;2.55;0.77;;;;;;;14.48;51.10;97236.16;10588717;28;20040;-72
2023/03/10 13:43:47;;;;;;;1.65;0.50;;;;;;;14.27;51.75;97235.47;10587127;28;20040;-72
2023/03/10 13:48:49;;;;;;;1.60;0.50;;;;;;;14.41;52.29;97229.75;10588077;28;20058;-72
2023/03/10 13:53:54;;;;;;;2.53;1.00;;;;;;;14.21;51.94;97221.00;10587439;28;20093;-72
2023/03/10 13:58:57;;;;;;;1.10;0.70;;;;;;;14.25;53.16;97217.09;10586943;28;20055;-72
2023/03/10 14:04:04;;;;;;;2.05;0.80;;;;;;;14.30;51.36;97206.97;10586408;28;20524;-71
2023/03/10 14:09:22;;;;;;;2.90;0.80;;;;;;;14.23;52.41;97211.13;10587027;28;20044;-71
2023/03/10 14:14:32;;;;;;;1.92;0.82;;;;;;;14.09;53.78;97214.19;10586365;28;20046;-72
2023/03/10 14:19:42;;;;;;;5.15;1.02;;;;;;;13.81;53.08;97229.03;10585794;28;20039;-71
2023/03/10 14:24:45;;;;;;;6.22;0.50;;;;;;;12.50;56.05;97304.53;10586619;28;20040;-73
2023/03/10 14:29:50;;;;;;;0.47;0.15;;;;;;;11.03;64.03;97296.06;10585751;28;20044;-73
2023/03/10 14:34:51;;;;;;;1.30;0.20;;;;;;;10.50;73.71;97300.16;10585511;28;20036;-73
2023/03/10 14:39:53;;;;;;;1.13;0.30;;;;;;;10.09;78.38;97299.63;10585823;28;20043;-72
2023/03/10 14:45:00;;;;;;;1.05;0.30;;;;;;;10.08;75.84;97302.31;10567764;28;20063;-72
2023/03/10 14:50:02;;;;;;;0.85;0.17;;;;;;;10.09;75.91;97285.63;10567489;28;20097;-72
2023/03/10 14:55:13;;;;;;;0.52;0.20;;;;;;;10.01;78.51;97285.38;10566796;28;20058;-72
2023/03/10 15:00:20;;;;;;;0.82;0.30;;;;;;;9.93;83.23;97290.34;10586492;28;20044;-72
2023/03/10 15:05:25;;;;;;;0.95;0.30;;;;;;;9.58;90.23;97283.22;10584470;28;20062;-72
2023/03/10 15:10:46;;;;;;;2.00;0.40;;;;;;;9.52;90.69;97281.06;10567674;28;20047;-72
2023/03/10 15:15:49;;;;;;;1.55;0.30;;;;;;;9.75;87.84;97287.25;10603432;27;20398;-72
2023/03/10 15:20:57;;;;;;;1.83;0.30;;;;;;;10.10;85.04;97276.81;10610287;27;20409;-72
2023/03/10 15:26:02;;;;;;;1.10;0.20;;;;;;;10.38;83.91;97278.25;10541756;22;20114;-73
2023/03/10 15:31:05;;;;;;;2.00;0.40;;;;;;;10.54;80.76;97267.44;10485308;28;20051;-73
2023/03/10 15:36:08;;;;;;;0.57;0.30;;;;;;;10.68;80.41;97264.59;10481477;28;20062;-73
2023/03/10 15:41:11;;;;;;;0.65;0.40;;;;;;;10.85;79.01;97258.06;10498545;28;20398;-73
2023/03/10 15:46:13;;;;;;;1.85;0.50;;;;;;;10.95;76.82;97255.56;10497590;28;20058;-73
2023/03/10 15:51:16;;;;;;;1.35;0.40;;;;;;;10.85;78.41;97255.44;10482165;28;20064;-73
2023/03/10 15:56:18;;;;;;;1.05;0.52;;;;;;;10.92;74.70;97248.72;10498458;28;20071;-73
2023/03/10 16:01:20;;;;;;;0.40;0.40;;;;;;;10.87;75.45;97256.16;10498549;28;20044;-72
2023/03/10 16:06:26;;;;;;;1.95;0.70;;;;;;;10.78;73.54;97255.06;10498480;28;20587;-72
2023/03/10 16:11:28;;;;;;;1.13;0.68;;;;;;;10.66;76.33;97253.34;10499848;28;20051;-72
2023/03/10 16:16:29;;;;;;;0.90;0.50;;;;;;;10.50;76.59;97250.25;10518590;28;20032;-73
2023/03/10 16:21:31;;;;;;;0.40;0.30;;;;;;;10.51;76.57;97254.53;10470979;28;20082;-72
2023/03/10 16:26:33;;;;;;;2.30;0.75;;;;;;;10.16;79.48;97260.59;10548583;28;20044;-70
2023/03/10 16:31:35;;;;;;;1.30;0.70;;;;;;;10.18;76.54;97260.47;10534134;28;20044;-73
2023/03/10 16:36:36;;;;;;;1.00;0.57;;;;;;;10.18;76.58;97261.34;10488653;28;20449;-73
2023/03/10 16:41:38;;;;;;;0.80;0.35;;;;;;;10.14;74.86;97252.03;10506568;28;20055;-72
2023/03/10 16:46:40;;;;;;;0.75;0.50;;;;;;;10.09;74.42;97244.50;10505648;28;20044;-72
2023/03/10 16:51:44;;;;;;;1.02;0.70;;;;;;;10.11;73.71;97247.81;10504703;28;20121;-73
2023/03/10 16:56:48;;;;;;;0.90;0.50;;;;;;;10.02;74.66;97253.75;10523938;28;20085;-73
2023/03/10 17:01:50;;;;;;;1.42;0.70;;;;;;;9.77;76.62;97253.88;10535922;28;20466;-72
2023/03/10 17:06:52;;;;;;;0.82;0.43;;;;;;;9.78;77.31;97258.16;10485966;28;20082;-72
2023/03/10 17:11:54;;;;;;;1.30;0.55;;;;;;;9.72;76.50;97253.38;10531514;28;20047;-73
2023/03/10 17:16:56;;;;;;;1.20;0.50;;;;;;;9.77;75.64;97257.34;10531975;28;20063;-74
2023/03/10 17:21:58;;;;;;;1.00;0.50;;;;;;;9.73;75.09;97260.28;10547364;28;20052;-73
2023/03/10 17:26:59;;;;;;;2.03;0.68;;;;;;;9.48;76.58;97254.22;10518224;28;20043;-74
2023/03/10 17:32:01;;;;;;;0.63;0.55;;;;;;;9.18;78.35;97251.13;10502371;28;20047;-74
2023/03/10 17:37:03;;;;;;;0.95;0.40;;;;;;;9.23;76.27;97259.50;10486317;28;20447;-73
2023/03/10 17:42:05;;;;;;;0.82;0.40;;;;;;;9.20;75.65;97259.72;10504562;28;20106;-73
2023/03/10 17:47:06;;;;;;;0.40;0.30;;;;;;;9.03;76.54;97251.28;10504308;28;20044;-74
2023/03/10 17:52:08;;;;;;;1.05;0.55;;;;;;;8.91;77.47;97238.19;10503731;28;20059;-72
2023/03/10 17:57:10;;;;;;;0.98;0.60;;;;;;;8.93;77.48;97244.97;10503392;28;20040;-73
2023/03/10 18:02:11;;;;;;;1.27;0.82;;;;;;;8.63;79.66;97244.47;10505796;28;20051;-73
2023/03/10 18:07:14;;;;;;;0.77;0.50;;;;;;;8.58;80.64;97236.94;10502863;28;20045;-73
2023/03/10 18:12:18;;;;;;;1.50;0.60;;;;;;;8.62;80.11;97233.16;10502951;28;20186;-72
2023/03/10 18:17:20;;;;;;;0.82;0.43;;;;;;;8.56;80.71;97228.34;10503188;28;20042;-73
2023/03/10 18:22:21;;;;;;;1.35;0.63;;;;;;;8.44;82.26;97221.31;10501432;28;20335;-72
2023/03/10 18:27:23;;;;;;;1.00;0.60;;;;;;;8.42;83.00;97204.91;10499080;28;20048;-72
2023/03/10 18:32:26;;;;;;;0.70;0.60;;;;;;;8.40;83.32;97201.53;10499695;28;20036;-72
2023/03/10 18:37:31;;;;;;;0.63;0.50;;;;;;;8.36;84.17;97206.09;10501313;28;20059;-72
2023/03/10 18:42:33;;;;;;;0.45;0.40;;;;;;;8.39;84.49;97198.09;10501356;28;20182;-72
2023/03/10 18:47:35;;;;;;;0.85;0.65;;;;;;;8.33;85.17;97188.84;10502344;28;20048;-72
2023/03/10 18:52:37;;;;;;;0.93;0.50;;;;;;;8.25;86.30;97187.69;10500051;28;20116;-72
2023/03/10 18:57:39;;;;;;;0.80;0.60;;;;;;;8.24;86.26;97186.84;10482130;28;20513;-71
2023/03/10 19:02:41;;;;;;;0.82;0.60;;;;;;;8.30;86.45;97183.81;10504480;28;20055;-71
2023/03/10 19:07:43;;;;;;;0.63;0.50;;;;;;;8.28;86.72;97177.03;10543082;28;20047;-72
2023/03/10 19:12:45;;;;;;;1.48;0.63;;;;;;;8.49;85.31;97186.03;10542187;28;20556;-72
2023/03/10 19:17:47;;;;;;;1.77;0.77;;;;;;;8.45;85.75;97176.72;10541645;28;20101;-71
2023/03/10 19:22:49;;;;;;;0.60;0.40;;;;;;;8.53;85.69;97170.97;10541680;28;20052;-72
2023/03/10 19:27:51;;;;;;;1.27;0.50;;;;;;;8.39;86.47;97174.53;10541336;28;20056;-73
2023/03/10 19:32:53;;;;;;;0.70;0.40;;;;;;;8.56;85.14;97176.00;10542541;28;20040;-72
2023/03/10 19:37:55;;;;;;;1.20;0.43;;;;;;;8.59;85.23;97157.47;10523826;28;20405;-72
2023/03/10 19:42:57;;;;;;;0.88;0.50;;;;;;;8.67;85.16;97177.84;10540772;28;20043;-72
2023/03/10 19:47:59;;;;;;;0.30;0.30;;;;;;;8.53;88.00;97184.06;10541784;28;20047;-72
2023/03/10 19:53:00;;;;;;;0.60;0.30;;;;;;;8.55;89.63;97175.16;10523069;28;20048;-71
2023/03/10 19:58:02;;;;;;;1.13;0.20;;;;;;;8.43;92.77;97178.63;10540235;28;20557;-72
2023/03/10 20:03:04;;;;;;;0.30;0.30;;;;;;;8.27;97.48;97181.38;10496504;28;20092;-72
2023/03/10 20:08:07;;;;;;;0.10;0.10;;;;;;;8.18;100.00;97175.94;10499330;28;20040;-72
2023/03/10 20:13:10;;;;;;;0.40;0.40;;;;;;;8.14;100.00;97185.78;10501343;28;20054;-74
2023/03/10 20:18:11;;;;;;;0.30;0.30;;;;;;;8.07;100.00;97179.31;10500292;28;20043;-72
2023/03/10 20:23:14;;;;;;;0.60;0.30;;;;;;;8.01;100.00;97180.56;10500218;28;20102;-72
2023/03/10 20:28:16;;;;;;;0.85;0.40;;;;;;;7.95;100.00;97183.56;10499164;28;20056;-72
2023/03/10 20:33:19;;;;;;;0.38;0.35;;;;;;;7.95;99.36;97183.56;10501223;28;20055;-72
2023/03/10 20:38:21;;;;;;;0.38;0.20;;;;;;;7.87;99.09;97179.78;10501996;28;20040;-72
2023/03/10 20:43:22;;;;;;;0.20;0.20;;;;;;;7.67;99.59;97188.97;10500672;28;20056;-72
2023/03/10 20:48:24;;;;;;;0.73;0.10;;;;;;;7.46;96.78;97189.41;10499844;28;20037;-71
2023/03/10 20:53:27;;;;;;;0.57;0.20;;;;;;;7.32;98.43;97181.63;10496535;28;20044;-72
2023/03/10 20:58:28;;;;;;;0.45;0.10;;;;;;;7.22;93.81;97185.75;10481369;28;20135;-73
2023/03/10 21:03:30;;;;;;;0.10;0.10;;;;;;;7.23;92.45;97190.03;10496890;28;20033;-73
2023/03/10 21:08:32;;;;;;;0.38;0.20;;;;;;;7.12;93.61;97193.31;10502313;28;20040;-73
2023/03/10 21:13:34;;;;;;;0.15;0.15;;;;;;;7.05;92.96;97199.88;10505726;28;20044;-73
2023/03/10 21:18:36;;;;;;;0.13;0.13;;;;;;;6.91;95.47;97192.06;10506556;28;20040;-73
2023/03/10 21:23:38;;;;;;;0.13;0.13;;;;;;;6.79;94.84;97180.59;10487733;28;20540;-73
2023/03/10 21:28:40;;;;;;;0.38;0.20;;;;;;;6.76;93.81;97189.47;10593153;22;20043;-72
2023/03/10 21:33:42;;;;;;;0.28;0.22;;;;;;;6.70;92.36;97176.78;10571779;28;20484;-72
2023/03/10 21:38:47;;;;;;;0.73;0.25;;;;;;;6.63;93.13;97193.75;10572450;28;20516;-73
2023/03/10 21:43:49;;;;;;;0.25;0.25;;;;;;;6.62;92.06;97186.03;10589778;28;20039;-73
2023/03/10 21:48:51;;;;;;;0.35;0.35;;;;;;;6.46;95.26;97200.03;10589643;28;20077;-73
2023/03/10 21:53:53;;;;;;;0.38;0.30;;;;;;;6.43;93.70;97197.59;10571238;28;20043;-73
2023/03/10 21:58:56;;;;;;;0.20;0.20;;;;;;;6.38;93.10;97193.59;10590464;28;20040;-72
2023/03/10 22:03:57;;;;;;;0.40;0.30;;;;;;;6.36;94.10;97196.25;10590242;28;20051;-72
2023/03/10 22:08:59;;;;;;;0.30;0.30;;;;;;;6.27;95.24;97192.44;10590078;28;20480;-73
2023/03/10 22:14:01;;;;;;;0.65;0.30;;;;;;;6.29;95.43;97193.19;10589817;28;20040;-72
2023/03/10 22:19:03;;;;;;;0.55;0.35;;;;;;;6.17;94.60;97188.72;10588287;28;20087;-72
2023/03/10 22:24:05;;;;;;;0.38;0.30;;;;;;;6.09;96.03;97206.56;10589146;28;20078;-73
2023/03/10 22:29:07;;;;;;;0.32;0.32;;;;;;;6.05;97.26;97215.50;10588491;28;20428;-72
2023/03/10 22:34:08;;;;;;;1.10;0.52;;;;;;;6.00;99.21;97209.72;10587721;28;20146;-73
2023/03/10 22:39:10;;;;;;;0.25;0.25;;;;;;;5.99;100.00;97213.25;10568520;28;20044;-73
2023/03/10 22:44:12;;;;;;;0.32;0.30;;;;;;;5.95;100.00;97237.84;10586624;28;20043;-73
2023/03/10 22:49:14;;;;;;;0.40;0.40;;;;;;;5.86;99.41;97217.47;10586337;28;20039;-73
2023/03/10 22:54:15;;;;;;;0.60;0.40;;;;;;;5.78;99.97;97223.97;10585671;28;20050;-73
2023/03/10 22:59:17;;;;;;;1.00;0.40;;;;;;;5.70;97.27;97233.97;10586310;28;20127;-73
2023/03/10 23:04:19;;;;;;;0.30;0.30;;;;;;;5.59;98.13;97233.75;10567899;28;20062;-72
2023/03/10 23:09:21;;;;;;;0.40;0.35;;;;;;;5.49;98.69;97238.66;10585945;28;20085;-72
2023/03/10 23:14:22;;;;;;;0.70;0.52;;;;;;;5.38;99.88;97235.78;10586943;28;20107;-73
2023/03/10 23:19:24;;;;;;;1.80;0.80;;;;;;;5.35;100.00;97248.97;10585738;28;20063;-73
2023/03/10 23:24:26;;;;;;;0.85;0.68;;;;;;;5.24;100.00;97251.34;10586370;28;20092;-73
2023/03/10 23:29:27;;;;;;;0.40;0.40;;;;;;;5.28;100.00;97261.50;10585524;28;20485;-73
2023/03/10 23:34:29;;;;;;;1.08;0.73;;;;;;;5.24;100.00;97288.63;10585224;28;20051;-73
2023/03/10 23:39:31;;;;;;;1.40;0.30;;;;;;;4.80;100.00;97317.88;10586262;28;20038;-72
2023/03/10 23:44:33;;;;;;;0.80;0.20;;;;;;;4.11;100.00;97369.91;10585192;28;20043;-74